Sun, 04 Dec 2022 03:13:04 UTC | login

Information for RPM brotli-1.0.9-6.el9.i686.rpm

ID287570
Namebrotli
Version1.0.9
Release6.el9
Epoch
Archi686
SummaryLossless compression algorithm
DescriptionBrotli is a generic-purpose lossless compression algorithm that compresses data using a combination of a modern variant of the LZ77 algorithm, Huffman coding and 2nd order context modeling, with a compression ratio comparable to the best currently available general-purpose compression methods. It is similar in speed with deflate but offers more dense compression.
Build Time2021-08-09 19:36:49 GMT
Size315.49 KB
d06bba8c709ee91997dcda5aac8733bf
LicenseMIT
Buildrootc9s-build-side-264-stack-gate-157123-24760
Provides
brotli = 1.0.9-6.el9
brotli(x86-32) = 1.0.9-6.el9
Obsoletes No Obsoletes
Conflicts No Conflicts
Requires
libbrotli(x86-32) = 1.0.9-6.el9
libc.so.6
libc.so.6(GLIBC_2.0)
libc.so.6(GLIBC_2.1)
libc.so.6(GLIBC_2.1.3)
libc.so.6(GLIBC_2.3.4)
libc.so.6(GLIBC_2.33)
libc.so.6(GLIBC_2.34)
libc.so.6(GLIBC_2.4)
libm.so.6
libm.so.6(GLIBC_2.29)
rpmlib(CompressedFileNames) <= 3.0.4-1
rpmlib(FileDigests) <= 4.6.0-1
rpmlib(PayloadFilesHavePrefix) <= 4.0-1
rpmlib(PayloadIsZstd) <= 5.4.18-1
rtld(GNU_HASH)
Recommends No Recommends
Suggests No Suggests
Supplements No Supplements
Enhances No Enhances
Files
1 through 4 of 4
Name ascending sort Size
/usr/bin/brotli769.79 KB
/usr/lib/.build-id0.00 B
/usr/lib/.build-id/000.00 B
/usr/lib/.build-id/00/49b1aa859f9a109686a6868a64a82cd156471b26.00 B
Component of
Page:
1 through 50 of 2831 >>>
Buildroot descending sort Created State
c9s-build-301541-170623 2022-12-02 13:18:30 expired
c9s-build-301478-170428 2022-12-02 10:31:01 expired
c9s-build-301335-169876 2022-12-01 12:22:48 expired
c9s-build-301315-169706 2022-12-01 09:42:22 expired
c9s-build-301196-169066 2022-11-30 19:34:33 expired
c9s-build-301186-168977 2022-11-30 19:01:15 expired
c9s-build-301180-168977 2022-11-30 18:42:52 expired
c9s-build-301162-168883 2022-11-30 16:35:34 expired
c9s-build-301146-168883 2022-11-30 16:12:41 expired
c9s-build-301099-168883 2022-11-30 15:01:10 expired
c9s-build-301078-168883 2022-11-30 14:41:26 expired
c9s-build-301027-168703 2022-11-30 12:09:02 expired
c9s-build-300811-167320 2022-11-29 05:53:28 expired
c9s-build-300756-167239 2022-11-28 16:16:40 expired
c9s-build-300523-165897 2022-11-24 14:13:08 expired
c9s-build-300453-165405 2022-11-24 09:01:34 expired
c9s-build-300386-164915 2022-11-23 17:10:50 expired
c9s-build-300270-164253 2022-11-23 00:20:36 expired
c9s-build-300253-164253 2022-11-22 23:26:53 expired
c9s-build-300240-164253 2022-11-22 23:04:36 expired
c9s-build-300234-164253 2022-11-22 22:47:26 expired
c9s-build-300226-164172 2022-11-22 22:36:07 expired
c9s-pesign-build-300126-163525 2022-11-21 20:46:01 expired
c9s-build-299962-162857 2022-11-21 08:00:29 expired
c9s-build-299885-162423 2022-11-18 14:43:37 expired
c9s-build-299854-162342 2022-11-18 12:53:17 expired
c9s-build-299680-161011 2022-11-16 16:25:51 expired
c9s-pesign-build-299534-160288 2022-11-15 18:39:47 expired
c9s-build-299494-160125 2022-11-15 14:40:22 expired
c9s-build-299358-159948 2022-11-14 13:57:11 expired
c9s-build-299346-159948 2022-11-14 13:05:26 expired
c9s-build-299341-159948 2022-11-14 13:05:16 expired
c9s-build-299307-159705 2022-11-14 07:22:59 expired
c9s-build-299240-159128 2022-11-11 12:53:02 expired
c9s-build-299237-159049 2022-11-11 11:13:47 expired
c9s-build-299228-159049 2022-11-11 09:50:23 expired
c9s-build-side-1348-stack-gate-299169-158809 2022-11-10 17:32:06 expired
c9s-build-side-1348-stack-gate-299149-158730 2022-11-10 16:58:43 expired
c9s-build-299001-157954 2022-11-09 15:32:27 expired
c9s-build-298920-157723 2022-11-09 00:26:56 expired
c9s-build-298844-157433 2022-11-08 14:11:14 expired
c9s-build-298799-157125 2022-11-08 04:21:20 expired
c9s-build-298675-156274 2022-11-07 11:16:46 expired
c9s-build-298661-156122 2022-11-07 09:31:54 expired
c9s-build-298649-156122 2022-11-07 08:06:30 expired
c9s-build-298640-156122 2022-11-07 07:30:23 expired
c9s-build-298606-155657 2022-11-04 18:50:34 expired
c9s-build-298599-155657 2022-11-04 18:44:20 expired
c9s-build-298594-155657 2022-11-04 18:05:49 expired
c9s-build-298571-155352 2022-11-04 14:40:48 expired